Time;durP1;ratioP1;P1;durP2;ratioP2;P2;SDS_P1;SDS_P2;PMS_P1;PMS_P2;Temp;Humidity;BMP_temperature;BMP_pressure;BME280_temperature;BME280_humidity;BME280_pressure;Samples;Min_cycle;Max_cycle;Signal;HPM_P1;HPM_P2
2021/05/02 00:01:04;;;;;;;15.30;12.95;;;;;;;;;;5110353;28;20191;-80
2021/05/02 00:03:30;;;;;;;16.50;11.90;;;;;;;;;;5102218;28;20188;-80
2021/05/02 00:05:56;;;;;;;13.57;11.68;;;;;;;;;;5090040;28;20287;-81
2021/05/02 00:08:22;;;;;;;13.98;11.98;;;;;;;;;;5099797;28;20199;-81
2021/05/02 00:10:48;;;;;;;13.95;12.48;;;;;;;;;;5094293;28;20177;-81
2021/05/02 00:13:15;;;;;;;15.98;12.60;;;;;;;;;;5098329;28;20232;-81
2021/05/02 00:15:41;;;;;;;13.73;12.27;;;;;;;;;;5089149;28;20184;-81
2021/05/02 00:18:07;;;;;;;14.95;12.40;;;;;;;;;;5101495;28;20183;-81
2021/05/02 00:20:33;;;;;;;15.75;12.80;;;;;;;;;;5096250;28;20180;-81
2021/05/02 00:23:03;;;;;;;15.48;13.40;;;;;;;;;;5095300;28;20183;-81
2021/05/02 00:25:31;;;;;;;14.38;12.60;;;;;;;;;;5095835;28;20192;-81
2021/05/02 00:27:57;;;;;;;16.58;12.73;;;;;;;;;;5112001;28;20220;-81
2021/05/02 00:30:25;;;;;;;16.02;12.23;;;;;;;;;;5102837;28;20179;-82
2021/05/02 00:32:52;;;;;;;13.60;11.77;;;;;;;;;;5107192;28;20171;-81
2021/05/02 00:35:19;;;;;;;15.32;13.73;;;;;;;;;;5103267;28;20194;-82
2021/05/02 00:37:45;;;;;;;15.35;13.48;;;;;;;;;;5095047;28;20176;-81
2021/05/02 00:40:13;;;;;;;17.20;14.80;;;;;;;;;;5111679;28;20306;-81
2021/05/02 00:42:42;;;;;;;16.77;13.82;;;;;;;;;;5107213;28;20209;-81
2021/05/02 00:45:08;;;;;;;15.48;13.32;;;;;;;;;;5107540;28;20217;-81
2021/05/02 00:47:39;;;;;;;18.20;15.48;;;;;;;;;;5098918;28;20222;-81
2021/05/02 00:50:07;;;;;;;15.82;14.23;;;;;;;;;;5102043;28;20172;-82
2021/05/02 00:52:40;;;;;;;19.15;14.40;;;;;;;;;;5099625;28;20180;-81
2021/05/02 00:55:10;;;;;;;20.55;15.05;;;;;;;;;;5096736;28;20168;-81
2021/05/02 00:57:54;;;;;;;18.55;13.88;;;;;;;;;;5096061;28;20548;-81
2021/05/02 01:00:21;;;;;;;16.48;14.43;;;;;;;;;;5096159;28;20183;-81
2021/05/02 01:02:47;;;;;;;19.25;15.98;;;;;;;;;;5093269;28;20230;-81
2021/05/02 01:05:13;;;;;;;19.42;15.32;;;;;;;;;;5095992;28;20649;-81
2021/05/02 01:07:40;;;;;;;17.08;13.18;;;;;;;;;;5093386;28;20207;-81
2021/05/02 01:10:16;;;;;;;17.90;14.75;;;;;;;;;;5103417;28;20172;-82
2021/05/02 01:12:43;;;;;;;18.92;13.82;;;;;;;;;;5108111;28;20175;-81
2021/05/02 01:15:14;;;;;;;21.77;14.10;;;;;;;;;;5098490;28;20164;-81
2021/05/02 01:17:43;;;;;;;16.13;14.40;;;;;;;;;;5105401;28;20171;-80
2021/05/02 01:20:18;;;;;;;19.33;14.98;;;;;;;;;;5094804;28;20199;-81
2021/05/02 01:22:44;;;;;;;22.42;16.23;;;;;;;;;;5090726;28;20203;-82
2021/05/02 01:25:11;;;;;;;19.88;14.60;;;;;;;;;;5103950;28;20188;-82
2021/05/02 01:27:37;;;;;;;19.98;15.30;;;;;;;;;;5106333;28;20203;-81
2021/05/02 01:30:05;;;;;;;19.15;14.93;;;;;;;;;;5098995;28;20164;-81
2021/05/02 01:32:32;;;;;;;21.20;15.00;;;;;;;;;;5098247;28;20160;-82
2021/05/02 01:34:58;;;;;;;18.17;14.75;;;;;;;;;;5095732;28;20176;-81
2021/05/02 01:37:24;;;;;;;18.70;15.02;;;;;;;;;;5108179;28;20191;-81
2021/05/02 01:39:50;;;;;;;18.92;14.52;;;;;;;;;;5108045;28;20657;-81
2021/05/02 01:42:16;;;;;;;20.98;13.77;;;;;;;;;;5095389;28;20179;-81
2021/05/02 01:44:43;;;;;;;17.55;15.02;;;;;;;;;;5101810;28;20216;-81
2021/05/02 01:47:10;;;;;;;19.67;15.07;;;;;;;;;;5096758;28;20212;-81
2021/05/02 01:49:40;;;;;;;18.45;15.38;;;;;;;;;;5096958;28;20587;-81
2021/05/02 01:52:07;;;;;;;16.30;13.95;;;;;;;;;;5098868;28;20180;-81
2021/05/02 01:54:33;;;;;;;18.25;15.40;;;;;;;;;;5102157;28;20208;-81
2021/05/02 01:56:59;;;;;;;17.42;14.63;;;;;;;;;;5107954;28;20174;-81
2021/05/02 01:59:25;;;;;;;20.17;15.13;;;;;;;;;;5106373;28;20183;-81
2021/05/02 02:01:51;;;;;;;21.65;15.48;;;;;;;;;;5100635;28;20248;-81
2021/05/02 02:04:18;;;;;;;18.90;15.30;;;;;;;;;;5096380;28;20179;-80
2021/05/02 02:06:44;;;;;;;20.85;15.65;;;;;;;;;;5106302;28;20196;-81
2021/05/02 02:09:10;;;;;;;19.05;16.08;;;;;;;;;;5107099;28;20670;-81
2021/05/02 02:11:37;;;;;;;17.45;13.88;;;;;;;;;;5101286;28;20257;-81
2021/05/02 02:14:03;;;;;;;18.90;15.57;;;;;;;;;;5098936;28;20179;-81
2021/05/02 02:16:29;;;;;;;18.70;15.25;;;;;;;;;;5094458;28;20196;-81
2021/05/02 02:18:55;;;;;;;17.52;15.48;;;;;;;;;;5110731;28;20197;-80
2021/05/02 02:21:23;;;;;;;18.35;15.52;;;;;;;;;;5110120;28;20189;-81
2021/05/02 02:23:53;;;;;;;18.88;15.30;;;;;;;;;;5096331;28;20179;-82
2021/05/02 02:26:31;;;;;;;17.60;14.52;;;;;;;;;;5090729;28;20208;-81
2021/05/02 02:28:58;;;;;;;19.85;14.93;;;;;;;;;;5094446;28;20287;-82
2021/05/02 02:31:25;;;;;;;23.75;15.13;;;;;;;;;;5094049;28;20263;-82
2021/05/02 02:33:51;;;;;;;19.50;14.85;;;;;;;;;;5084619;28;20184;-81
2021/05/02 02:36:17;;;;;;;22.50;15.30;;;;;;;;;;5094986;28;20171;-82
2021/05/02 02:38:44;;;;;;;18.73;14.80;;;;;;;;;;5094554;28;20179;-81
2021/05/02 02:41:15;;;;;;;20.65;16.13;;;;;;;;;;5096656;28;20206;-81
2021/05/02 02:43:42;;;;;;;20.23;16.20;;;;;;;;;;5098237;28;20216;-81
2021/05/02 02:46:10;;;;;;;19.67;15.35;;;;;;;;;;5058208;28;20216;-82
2021/05/02 02:48:40;;;;;;;18.98;16.15;;;;;;;;;;5086147;28;20290;-82
2021/05/02 02:51:07;;;;;;;20.65;16.15;;;;;;;;;;5070094;28;20180;-82
2021/05/02 02:53:33;;;;;;;20.10;15.90;;;;;;;;;;5065787;28;20215;-82
2021/05/02 02:56:07;;;;;;;22.20;16.45;;;;;;;;;;5075105;28;20181;-82
2021/05/02 02:58:46;;;;;;;18.13;14.63;;;;;;;;;;5084234;28;20230;-82
2021/05/02 03:01:13;;;;;;;22.33;15.40;;;;;;;;;;5073240;28;20199;-81
2021/05/02 03:03:42;;;;;;;17.52;15.20;;;;;;;;;;5067159;28;20191;-83
2021/05/02 03:06:08;;;;;;;18.45;15.27;;;;;;;;;;5089331;28;20192;-82
2021/05/02 03:08:37;;;;;;;20.52;15.45;;;;;;;;;;5064319;28;20164;-82
2021/05/02 03:11:03;;;;;;;21.50;16.77;;;;;;;;;;5073055;28;20717;-81
2021/05/02 03:13:29;;;;;;;25.95;15.82;;;;;;;;;;5058701;28;20180;-81
2021/05/02 03:15:57;;;;;;;19.60;14.52;;;;;;;;;;5078124;28;20183;-82
2021/05/02 03:18:25;;;;;;;17.95;14.15;;;;;;;;;;5060367;28;20227;-81
2021/05/02 03:21:12;;;;;;;16.33;14.00;;;;;;;;;;5063281;28;20188;-82
2021/05/02 03:23:43;;;;;;;20.80;14.50;;;;;;;;;;5088952;28;20174;-82
2021/05/02 03:26:10;;;;;;;18.45;14.90;;;;;;;;;;5080324;28;20715;-82
2021/05/02 03:28:48;;;;;;;17.77;15.25;;;;;;;;;;5075983;28;20193;-82
2021/05/02 03:31:15;;;;;;;18.80;15.38;;;;;;;;;;5067400;28;20185;-82
2021/05/02 03:33:46;;;;;;;20.33;15.23;;;;;;;;;;5076756;28;20230;-82
2021/05/02 03:36:15;;;;;;;16.70;14.80;;;;;;;;;;5074792;28;20180;-81
2021/05/02 03:38:51;;;;;;;17.35;14.63;;;;;;;;;;5070022;28;20176;-81
2021/05/02 03:41:19;;;;;;;19.92;15.35;;;;;;;;;;5060614;28;20260;-83
2021/05/02 03:43:45;;;;;;;20.63;15.88;;;;;;;;;;5075313;28;20228;-84
2021/05/02 03:46:24;;;;;;;20.23;14.65;;;;;;;;;;5074127;28;20279;-84
2021/05/02 03:49:00;;;;;;;17.83;15.18;;;;;;;;;;5060587;28;20180;-83
2021/05/02 03:51:27;;;;;;;17.25;14.65;;;;;;;;;;5075256;28;20193;-82
2021/05/02 03:53:54;;;;;;;20.90;15.52;;;;;;;;;;5074582;28;20183;-83
2021/05/02 03:56:43;;;;;;;21.75;15.23;;;;;;;;;;5061143;28;20222;-82
2021/05/02 03:59:09;;;;;;;17.60;15.70;;;;;;;;;;5062879;28;20223;-82
2021/05/02 04:01:36;;;;;;;19.45;15.95;;;;;;;;;;5061999;28;20243;-82
2021/05/02 04:04:02;;;;;;;20.98;16.20;;;;;;;;;;5080482;28;20192;-83
2021/05/02 04:06:28;;;;;;;17.75;14.35;;;;;;;;;;5070161;28;20204;-84
2021/05/02 04:08:54;;;;;;;20.88;15.75;;;;;;;;;;5084691;28;20179;-84
2021/05/02 04:11:21;;;;;;;22.20;18.52;;;;;;;;;;5081836;28;20290;-85
2021/05/02 04:13:47;;;;;;;20.50;15.93;;;;;;;;;;5067311;28;20263;-85
2021/05/02 04:16:13;;;;;;;19.40;16.25;;;;;;;;;;5085709;28;20618;-84
2021/05/02 04:18:39;;;;;;;19.52;15.98;;;;;;;;;;5070084;28;20628;-85
2021/05/02 04:21:05;;;;;;;23.20;17.83;;;;;;;;;;5077385;28;20171;-85
2021/05/02 04:23:35;;;;;;;23.23;16.50;;;;;;;;;;5082820;28;20203;-85
2021/05/02 04:26:01;;;;;;;22.25;16.85;;;;;;;;;;5070490;28;20236;-85
2021/05/02 04:28:27;;;;;;;21.15;16.70;;;;;;;;;;5078314;28;20214;-85
2021/05/02 04:30:53;;;;;;;19.27;15.60;;;;;;;;;;5058510;28;20181;-84
2021/05/02 04:33:19;;;;;;;21.13;14.80;;;;;;;;;;5076350;28;20554;-86
2021/05/02 04:35:44;;;;;;;20.13;15.63;;;;;;;;;;5059150;28;20179;-87
2021/05/02 04:38:10;;;;;;;21.35;16.05;;;;;;;;;;5074862;28;20171;-87
2021/05/02 04:40:36;;;;;;;19.80;14.60;;;;;;;;;;5067215;28;20181;-87
2021/05/02 04:43:02;;;;;;;21.65;16.50;;;;;;;;;;5060430;28;20510;-87
2021/05/02 04:45:28;;;;;;;21.73;17.00;;;;;;;;;;5058622;28;20223;-87
2021/05/02 04:47:54;;;;;;;23.40;16.63;;;;;;;;;;5084428;28;20219;-87
2021/05/02 04:50:20;;;;;;;21.55;16.65;;;;;;;;;;5079202;28;20201;-86
2021/05/02 04:52:46;;;;;;;20.08;16.60;;;;;;;;;;5069697;28;20191;-87
2021/05/02 04:55:12;;;;;;;23.08;18.40;;;;;;;;;;5070158;28;20311;-87
2021/05/02 04:57:39;;;;;;;24.85;17.27;;;;;;;;;;5076121;28;20176;-86
2021/05/02 05:00:06;;;;;;;24.67;17.33;;;;;;;;;;5070195;28;20244;-85
2021/05/02 05:02:32;;;;;;;26.98;19.95;;;;;;;;;;5079700;28;20194;-88
2021/05/02 05:04:58;;;;;;;26.20;18.15;;;;;;;;;;5072671;28;20205;-87
2021/05/02 05:07:24;;;;;;;23.13;18.10;;;;;;;;;;5066441;28;20236;-86
2021/05/02 05:09:50;;;;;;;29.63;18.70;;;;;;;;;;5073999;28;20204;-84
2021/05/02 05:12:16;;;;;;;24.20;18.02;;;;;;;;;;5057651;28;20183;-85
2021/05/02 05:14:42;;;;;;;22.40;17.17;;;;;;;;;;5077500;28;20177;-86
2021/05/02 05:17:08;;;;;;;25.10;17.98;;;;;;;;;;5059617;28;20218;-87
2021/05/02 05:19:34;;;;;;;24.30;17.97;;;;;;;;;;5058091;28;20218;-86
2021/05/02 05:22:00;;;;;;;25.77;19.27;;;;;;;;;;5065924;28;20430;-86
2021/05/02 05:24:26;;;;;;;25.55;19.20;;;;;;;;;;5064638;28;20203;-84
2021/05/02 05:26:52;;;;;;;28.35;20.08;;;;;;;;;;5057238;28;20201;-86
2021/05/02 05:29:18;;;;;;;26.15;20.33;;;;;;;;;;5062437;28;20187;-85
2021/05/02 05:31:44;;;;;;;26.38;18.63;;;;;;;;;;5066728;28;20185;-86
2021/05/02 05:34:10;;;;;;;26.05;19.02;;;;;;;;;;5086508;28;20264;-85
2021/05/02 05:36:36;;;;;;;27.08;19.55;;;;;;;;;;5056585;28;20206;-86
2021/05/02 05:39:02;;;;;;;29.08;20.25;;;;;;;;;;5070921;28;20203;-85
2021/05/02 05:41:28;;;;;;;26.75;20.83;;;;;;;;;;5075993;28;20245;-84
2021/05/02 05:43:54;;;;;;;29.33;21.15;;;;;;;;;;5070509;28;20254;-84
2021/05/02 05:46:20;;;;;;;30.92;22.13;;;;;;;;;;5094925;28;20212;-84
2021/05/02 05:48:46;;;;;;;33.53;22.95;;;;;;;;;;5107345;28;20180;-85
2021/05/02 05:51:12;;;;;;;33.95;22.42;;;;;;;;;;5097547;28;20200;-84
2021/05/02 05:53:38;;;;;;;28.20;21.58;;;;;;;;;;5097640;28;20175;-83
2021/05/02 05:56:04;;;;;;;31.52;21.50;;;;;;;;;;5094003;28;20180;-81
2021/05/02 05:58:32;;;;;;;31.85;22.08;;;;;;;;;;5096852;28;20203;-82
2021/05/02 06:00:58;;;;;;;31.25;22.20;;;;;;;;;;5101321;28;20188;-84
2021/05/02 06:03:24;;;;;;;28.63;20.88;;;;;;;;;;5105942;28;20267;-83
2021/05/02 06:05:50;;;;;;;31.55;22.25;;;;;;;;;;5100661;28;20179;-84
2021/05/02 06:08:17;;;;;;;29.83;22.13;;;;;;;;;;5104696;28;20183;-83
2021/05/02 06:10:43;;;;;;;29.33;21.08;;;;;;;;;;5091354;28;20181;-83
2021/05/02 06:13:09;;;;;;;32.28;21.48;;;;;;;;;;5089409;28;20233;-83
2021/05/02 06:15:35;;;;;;;32.75;23.60;;;;;;;;;;5106861;28;20183;-82
2021/05/02 06:18:01;;;;;;;33.65;22.98;;;;;;;;;;5100981;28;20643;-82
2021/05/02 06:20:27;;;;;;;37.37;24.13;;;;;;;;;;5086599;28;20199;-82
2021/05/02 06:22:53;;;;;;;34.97;23.20;;;;;;;;;;5088326;28;20469;-82
2021/05/02 06:25:20;;;;;;;34.85;25.77;;;;;;;;;;5088973;28;20208;-82
2021/05/02 06:27:46;;;;;;;30.60;22.20;;;;;;;;;;5096815;28;20200;-82
2021/05/02 06:30:12;;;;;;;37.08;24.52;;;;;;;;;;5110347;28;20174;-82
2021/05/02 06:32:38;;;;;;;35.90;24.85;;;;;;;;;;5095528;28;20176;-82
2021/05/02 06:35:05;;;;;;;36.47;24.88;;;;;;;;;;5086361;28;20176;-83
2021/05/02 06:37:31;;;;;;;35.63;24.65;;;;;;;;;;5098095;28;20183;-84
2021/05/02 06:39:57;;;;;;;34.70;24.73;;;;;;;;;;5098104;28;20200;-83
2021/05/02 06:42:24;;;;;;;32.08;22.92;;;;;;;;;;5108762;28;20274;-84
2021/05/02 06:44:50;;;;;;;37.88;23.40;;;;;;;;;;5090714;28;20688;-84
2021/05/02 06:47:16;;;;;;;31.92;23.67;;;;;;;;;;5069944;28;20250;-85
2021/05/02 06:49:42;;;;;;;31.63;23.73;;;;;;;;;;5082610;28;20185;-85
2021/05/02 06:52:08;;;;;;;30.48;22.00;;;;;;;;;;5087066;28;20212;-86
2021/05/02 06:54:34;;;;;;;28.70;22.30;;;;;;;;;;5070984;28;20211;-87
2021/05/02 06:57:00;;;;;;;25.23;20.42;;;;;;;;;;5068431;28;20734;-87
2021/05/02 06:59:26;;;;;;;31.55;23.70;;;;;;;;;;5062516;28;20199;-88
2021/05/02 07:01:52;;;;;;;30.30;24.77;;;;;;;;;;5051414;28;20185;-86
2021/05/02 07:04:18;;;;;;;30.65;22.63;;;;;;;;;;5073081;28;20185;-88
2021/05/02 07:06:44;;;;;;;31.90;22.73;;;;;;;;;;5053888;28;20210;-88
2021/05/02 07:09:10;;;;;;;33.45;24.60;;;;;;;;;;5056288;28;20273;-89
2021/05/02 07:11:36;;;;;;;34.65;24.55;;;;;;;;;;5066373;28;20176;-87
2021/05/02 07:14:02;;;;;;;26.83;21.70;;;;;;;;;;5061319;28;20192;-87
2021/05/02 07:16:29;;;;;;;28.17;24.10;;;;;;;;;;5069985;28;20255;-87
2021/05/02 07:18:55;;;;;;;36.65;24.48;;;;;;;;;;5055051;28;20205;-87
2021/05/02 07:21:21;;;;;;;32.83;22.48;;;;;;;;;;5073273;28;20203;-88
2021/05/02 07:23:48;;;;;;;31.58;21.45;;;;;;;;;;5067777;28;20228;-90
2021/05/02 07:26:15;;;;;;;25.13;20.25;;;;;;;;;;5049979;28;20319;-85
2021/05/02 07:28:41;;;;;;;26.52;20.90;;;;;;;;;;5048161;28;20185;-87
2021/05/02 07:31:07;;;;;;;25.73;19.65;;;;;;;;;;5051802;28;20177;-86
2021/05/02 07:33:33;;;;;;;25.42;19.15;;;;;;;;;;5074153;28;20192;-87
2021/05/02 07:35:59;;;;;;;25.60;18.70;;;;;;;;;;5091844;28;20176;-86
2021/05/02 07:38:25;;;;;;;28.70;21.75;;;;;;;;;;5058545;28;20204;-86
2021/05/02 07:40:51;;;;;;;26.00;20.27;;;;;;;;;;5056944;28;20181;-83
2021/05/02 07:43:17;;;;;;;30.23;21.85;;;;;;;;;;5088576;28;20185;-87
2021/05/02 07:45:43;;;;;;;25.45;19.50;;;;;;;;;;5063354;28;20173;-85
2021/05/02 07:51:14;;;;;;;26.63;20.45;;;;;;;;;;4975706;28;20190;-87
2021/05/02 07:53:40;;;;;;;26.67;20.98;;;;;;;;;;4963095;28;20200;-85
2021/05/02 07:56:34;;;;;;;24.20;18.48;;;;;;;;;;4978953;28;20188;-88
2021/05/02 07:59:16;;;;;;;40.15;28.35;;;;;;;;;;4978404;28;20193;-87
2021/05/02 08:02:02;;;;;;;21.92;16.50;;;;;;;;;;4919577;29;20197;-87
2021/05/02 08:04:55;;;;;;;18.48;16.40;;;;;;;;;;4906487;29;20303;-88
2021/05/02 08:07:48;;;;;;;21.30;16.65;;;;;;;;;;4903643;29;20222;-91
2021/05/02 08:13:57;;;;;;;23.25;17.33;;;;;;;;;;4918671;29;20193;-88
2021/05/02 08:16:34;;;;;;;24.65;18.77;;;;;;;;;;4901078;29;20228;-86
2021/05/02 08:19:24;;;;;;;24.27;20.00;;;;;;;;;;4901128;29;20208;-85
2021/05/02 08:22:19;;;;;;;25.85;17.45;;;;;;;;;;4918408;29;20261;-87
2021/05/02 08:27:52;;;;;;;21.17;17.02;;;;;;;;;;4948351;28;20212;-90
2021/05/02 08:30:18;;;;;;;19.15;16.42;;;;;;;;;;4966685;28;20187;-92
2021/05/02 08:32:44;;;;;;;22.77;15.90;;;;;;;;;;4981691;28;20192;-89
2021/05/02 08:35:10;;;;;;;16.80;14.00;;;;;;;;;;4977919;28;20192;-87
2021/05/02 08:37:36;;;;;;;18.30;14.38;;;;;;;;;;4961960;28;20198;-88
2021/05/02 08:40:04;;;;;;;16.58;14.75;;;;;;;;;;4975704;28;20234;-85
2021/05/02 08:42:30;;;;;;;16.35;14.48;;;;;;;;;;4983350;28;20223;-85
2021/05/02 08:44:59;;;;;;;15.40;13.03;;;;;;;;;;4998634;28;20223;-83
2021/05/02 08:47:35;;;;;;;;;;;;;;;;;;;;;
2021/05/02 08:50:17;;;;;;;19.90;15.98;;;;;;;;;;5003539;28;20273;-89
2021/05/02 08:52:43;;;;;;;19.02;15.90;;;;;;;;;;5013006;28;20580;-86
2021/05/02 08:55:09;;;;;;;18.88;15.38;;;;;;;;;;4995301;28;20675;-87
2021/05/02 08:57:38;;;;;;;16.48;14.68;;;;;;;;;;5014640;28;20205;-83
2021/05/02 09:00:09;;;;;;;21.38;13.65;;;;;;;;;;4997387;28;20182;-87
2021/05/02 09:03:06;;;;;;;13.27;11.68;;;;;;;;;;4995990;28;20255;-89
2021/05/02 09:05:45;;;;;;;17.30;13.65;;;;;;;;;;5069834;28;20183;-86
2021/05/02 09:08:30;;;;;;;16.98;13.75;;;;;;;;;;5062038;28;20211;-85
2021/05/02 09:10:56;;;;;;;18.65;14.38;;;;;;;;;;5059362;28;20180;-83
2021/05/02 09:13:23;;;;;;;16.60;14.07;;;;;;;;;;5054206;28;20195;-85
2021/05/02 09:16:15;;;;;;;15.77;11.98;;;;;;;;;;5061912;28;20603;-84
2021/05/02 09:18:45;;;;;;;12.70;11.40;;;;;;;;;;5065475;28;20224;-86
2021/05/02 09:21:16;;;;;;;14.50;11.82;;;;;;;;;;5080354;28;20173;-86
2021/05/02 09:23:43;;;;;;;17.63;13.32;;;;;;;;;;5069806;28;20634;-86
2021/05/02 09:26:26;;;;;;;14.55;12.85;;;;;;;;;;5059831;28;20236;-88
2021/05/02 09:28:56;;;;;;;17.85;13.50;;;;;;;;;;5074613;28;20181;-85
2021/05/02 09:31:27;;;;;;;13.52;12.13;;;;;;;;;;5078659;28;20249;-85
2021/05/02 09:33:54;;;;;;;14.32;11.85;;;;;;;;;;5077580;28;20172;-86
2021/05/02 09:36:20;;;;;;;14.13;11.52;;;;;;;;;;5077079;28;20173;-88
2021/05/02 09:38:47;;;;;;;13.05;11.38;;;;;;;;;;5079857;28;20195;-87
2021/05/02 09:41:14;;;;;;;11.50;10.25;;;;;;;;;;5060380;28;20212;-87
2021/05/02 09:43:41;;;;;;;10.75;9.40;;;;;;;;;;5067283;28;20233;-87
2021/05/02 09:49:10;;;;;;;14.32;12.82;;;;;;;;;;5087235;28;20175;-87
2021/05/02 09:51:57;;;;;;;13.63;11.23;;;;;;;;;;5095499;28;20176;-86
2021/05/02 09:54:27;;;;;;;12.75;10.18;;;;;;;;;;5099361;28;20240;-85
2021/05/02 09:56:58;;;;;;;13.68;11.73;;;;;;;;;;5097675;28;20227;-85
2021/05/02 09:59:29;;;;;;;12.30;10.23;;;;;;;;;;5100641;28;20194;-87
2021/05/02 10:02:05;;;;;;;12.73;11.43;;;;;;;;;;5100894;28;20184;-87
2021/05/02 10:04:32;;;;;;;13.52;11.18;;;;;;;;;;5106250;28;20282;-87
2021/05/02 10:06:59;;;;;;;12.95;10.70;;;;;;;;;;5110083;28;20267;-87
2021/05/02 10:09:26;;;;;;;12.35;11.05;;;;;;;;;;5107653;28;20179;-87
2021/05/02 10:11:52;;;;;;;14.60;11.45;;;;;;;;;;5097526;28;20640;-87
2021/05/02 10:14:18;;;;;;;13.60;12.03;;;;;;;;;;5098847;28;20179;-85
2021/05/02 10:16:44;;;;;;;15.43;11.60;;;;;;;;;;5107933;28;20471;-88
2021/05/02 10:19:10;;;;;;;15.50;12.80;;;;;;;;;;5107744;28;20208;-85
2021/05/02 10:21:40;;;;;;;19.10;15.90;;;;;;;;;;5110481;28;20176;-87
2021/05/02 10:24:06;;;;;;;14.80;12.40;;;;;;;;;;5105501;28;20179;-86
2021/05/02 10:26:32;;;;;;;16.08;14.27;;;;;;;;;;5102901;28;20211;-86
2021/05/02 10:28:59;;;;;;;14.20;12.63;;;;;;;;;;5098375;28;20180;-86
2021/05/02 10:31:29;;;;;;;19.15;16.23;;;;;;;;;;5103571;28;20197;-82
2021/05/02 10:33:55;;;;;;;18.08;14.00;;;;;;;;;;5102085;28;20173;-86
2021/05/02 10:36:22;;;;;;;16.08;14.35;;;;;;;;;;5096017;28;20195;-86
2021/05/02 10:38:55;;;;;;;15.88;13.35;;;;;;;;;;5096804;28;20192;-81
2021/05/02 10:41:22;;;;;;;16.67;13.05;;;;;;;;;;5096040;28;20210;-85
2021/05/02 10:43:48;;;;;;;19.00;15.30;;;;;;;;;;5085723;28;20287;-82
2021/05/02 10:46:33;;;;;;;15.00;12.32;;;;;;;;;;5082320;28;20204;-84
2021/05/02 10:48:59;;;;;;;16.23;12.15;;;;;;;;;;5059676;28;20193;-84
2021/05/02 10:51:25;;;;;;;14.98;12.32;;;;;;;;;;5089034;28;20201;-89
2021/05/02 10:54:22;;;;;;;13.55;12.25;;;;;;;;;;5077763;28;20185;-84
2021/05/02 10:56:48;;;;;;;12.32;10.15;;;;;;;;;;5067621;28;20251;-82
2021/05/02 10:59:14;;;;;;;13.47;12.13;;;;;;;;;;5077575;28;20199;-80
2021/05/02 11:01:41;;;;;;;15.30;12.65;;;;;;;;;;5068927;28;20454;-85
2021/05/02 11:04:07;;;;;;;13.57;11.15;;;;;;;;;;5083489;28;20176;-85
2021/05/02 11:06:39;;;;;;;12.13;10.93;;;;;;;;;;5060407;28;20201;-86
2021/05/02 11:09:06;;;;;;;11.80;10.50;;;;;;;;;;5067984;28;20181;-84
2021/05/02 11:11:33;;;;;;;31.85;26.45;;;;;;;;;;5077818;28;20185;-83
2021/05/02 11:14:08;;;;;;;11.27;9.55;;;;;;;;;;5061451;28;20188;-81
2021/05/02 11:16:43;;;;;;;9.48;8.57;;;;;;;;;;5077397;28;20185;-84
2021/05/02 11:19:16;;;;;;;8.77;7.55;;;;;;;;;;5077820;28;20234;-84
2021/05/02 11:21:51;;;;;;;9.52;7.88;;;;;;;;;;5093566;28;20185;-86
2021/05/02 11:24:19;;;;;;;8.43;7.35;;;;;;;;;;5052196;28;20191;-86
2021/05/02 11:27:07;;;;;;;8.07;7.30;;;;;;;;;;5079483;28;20285;-87
2021/05/02 11:30:21;;;;;;;11.98;7.65;;;;;;;;;;5068003;28;20206;-84
2021/05/02 11:32:30;;;;;;;9.05;7.80;;;;;;;;;;5069335;28;20282;-84
2021/05/02 11:35:05;;;;;;;8.45;7.72;;;;;;;;;;5083479;28;20192;-85
2021/05/02 11:37:40;;;;;;;11.43;8.73;;;;;;;;;;5088310;28;20204;-83
2021/05/02 11:40:18;;;;;;;9.80;7.15;;;;;;;;;;5061935;28;20211;-82
2021/05/02 11:42:57;;;;;;;9.35;7.68;;;;;;;;;;5057647;28;20244;-85
2021/05/02 11:45:24;;;;;;;8.52;7.68;;;;;;;;;;5073749;28;20224;-82
2021/05/02 11:47:50;;;;;;;7.57;6.72;;;;;;;;;;5072783;28;20215;-84
2021/05/02 11:50:17;;;;;;;7.97;7.05;;;;;;;;;;5055672;28;20181;-84
2021/05/02 11:52:46;;;;;;;8.20;7.38;;;;;;;;;;5088106;28;20180;-84
2021/05/02 11:55:27;;;;;;;8.18;6.47;;;;;;;;;;5062697;28;20199;-83
2021/05/02 11:57:54;;;;;;;8.50;7.60;;;;;;;;;;5082589;28;20200;-82
2021/05/02 12:00:32;;;;;;;7.82;6.93;;;;;;;;;;5059414;28;20184;-82
2021/05/02 12:02:58;;;;;;;6.80;6.18;;;;;;;;;;5077145;28;20336;-86
2021/05/02 12:05:24;;;;;;;6.37;5.77;;;;;;;;;;5067595;28;20378;-85
2021/05/02 12:08:06;;;;;;;4.00;3.70;;;;;;;;;;5067169;28;20858;-85
2021/05/02 12:10:32;;;;;;;3.40;3.10;;;;;;;;;;5052927;28;20470;-84
2021/05/02 12:12:58;;;;;;;4.72;3.50;;;;;;;;;;5079368;28;21100;-84
2021/05/02 12:15:24;;;;;;;4.50;4.10;;;;;;;;;;5060504;28;20236;-85
2021/05/02 12:17:53;;;;;;;5.53;4.93;;;;;;;;;;5077804;28;20193;-85
2021/05/02 12:20:23;;;;;;;5.90;5.40;;;;;;;;;;5063617;28;20184;-85
2021/05/02 12:22:49;;;;;;;8.00;4.85;;;;;;;;;;5066799;28;20604;-83
2021/05/02 12:25:16;;;;;;;5.43;4.75;;;;;;;;;;5060122;28;20191;-87
2021/05/02 12:27:59;;;;;;;5.95;5.35;;;;;;;;;;5087381;28;20204;-83
2021/05/02 12:30:25;;;;;;;5.47;4.97;;;;;;;;;;5069457;28;20635;-80
2021/05/02 12:32:52;;;;;;;5.18;4.78;;;;;;;;;;5056625;28;20207;-85
2021/05/02 12:35:18;;;;;;;6.03;4.75;;;;;;;;;;5076043;28;20193;-83
2021/05/02 12:37:44;;;;;;;5.28;4.50;;;;;;;;;;5063276;28;20260;-84
2021/05/02 12:40:12;;;;;;;5.15;4.75;;;;;;;;;;5069058;28;20586;-83
2021/05/02 12:42:38;;;;;;;6.40;5.78;;;;;;;;;;5061722;28;20326;-84
2021/05/02 12:45:06;;;;;;;4.25;3.85;;;;;;;;;;5092944;28;20219;-88
2021/05/02 12:47:38;;;;;;;4.00;3.60;;;;;;;;;;5091172;28;20217;-84
2021/05/02 12:50:06;;;;;;;4.35;3.95;;;;;;;;;;5093869;28;20209;-87
2021/05/02 12:52:39;;;;;;;4.35;3.95;;;;;;;;;;5098692;28;20180;-83
2021/05/02 12:55:17;;;;;;;3.83;3.53;;;;;;;;;;5101213;28;20185;-85
2021/05/02 12:57:47;;;;;;;4.20;3.90;;;;;;;;;;5095986;28;20430;-87
2021/05/02 13:00:16;;;;;;;4.53;4.13;;;;;;;;;;5098828;28;20430;-84
2021/05/02 13:02:46;;;;;;;3.77;3.47;;;;;;;;;;5095376;28;20493;-86
2021/05/02 13:05:14;;;;;;;4.20;3.90;;;;;;;;;;5094532;28;20767;-89
2021/05/02 13:07:41;;;;;;;3.60;3.30;;;;;;;;;;5090203;28;20444;-83
2021/05/02 13:10:07;;;;;;;4.17;3.77;;;;;;;;;;5093542;28;20947;-83
2021/05/02 13:12:52;;;;;;;4.55;3.97;;;;;;;;;;5096419;28;20433;-82
2021/05/02 13:15:19;;;;;;;4.90;4.43;;;;;;;;;;5110365;28;20249;-83
2021/05/02 13:17:58;;;;;;;5.10;4.25;;;;;;;;;;5101537;28;20179;-83
2021/05/02 13:20:24;;;;;;;4.80;4.43;;;;;;;;;;5095777;28;20243;-85
2021/05/02 13:22:50;;;;;;;5.40;4.88;;;;;;;;;;5089492;28;20205;-84
2021/05/02 13:25:20;;;;;;;4.97;4.10;;;;;;;;;;5101919;28;20224;-86
2021/05/02 13:27:47;;;;;;;4.85;4.40;;;;;;;;;;5086230;28;20470;-84
2021/05/02 13:30:13;;;;;;;4.35;4.03;;;;;;;;;;5097324;28;20183;-84
2021/05/02 13:32:59;;;;;;;5.13;4.47;;;;;;;;;;5096326;28;20176;-81
2021/05/02 13:35:25;;;;;;;5.85;4.82;;;;;;;;;;5089740;28;20177;-86
2021/05/02 13:37:51;;;;;;;5.97;5.47;;;;;;;;;;5092100;28;20305;-81
2021/05/02 13:40:18;;;;;;;6.57;5.97;;;;;;;;;;5109707;28;20193;-87
2021/05/02 13:42:44;;;;;;;6.90;6.20;;;;;;;;;;5109207;28;20213;-80
2021/05/02 13:45:11;;;;;;;5.65;5.15;;;;;;;;;;5091648;28;20215;-83
2021/05/02 13:47:37;;;;;;;6.18;5.57;;;;;;;;;;5065600;28;20204;-84
2021/05/02 13:50:04;;;;;;;4.93;4.07;;;;;;;;;;5062250;28;20188;-84
2021/05/02 13:52:29;;;;;;;5.32;4.85;;;;;;;;;;5066267;28;20522;-86
2021/05/02 13:54:58;;;;;;;4.90;4.50;;;;;;;;;;5071111;28;20235;-86
2021/05/02 13:57:27;;;;;;;5.63;5.13;;;;;;;;;;5076816;28;20433;-86
2021/05/02 13:59:53;;;;;;;6.53;4.90;;;;;;;;;;5057457;28;20199;-90
2021/05/02 14:02:19;;;;;;;5.97;5.38;;;;;;;;;;5052788;28;20192;-89
2021/05/02 14:04:45;;;;;;;5.97;5.35;;;;;;;;;;5065898;28;20188;-90
2021/05/02 14:07:11;;;;;;;5.13;4.63;;;;;;;;;;5073516;28;20235;-89
2021/05/02 14:09:37;;;;;;;7.93;6.35;;;;;;;;;;5068593;28;20579;-83
2021/05/02 14:12:03;;;;;;;4.80;4.40;;;;;;;;;;5051332;28;20173;-84
2021/05/02 14:14:29;;;;;;;5.25;4.47;;;;;;;;;;5081097;28;20184;-83
2021/05/02 14:16:55;;;;;;;5.37;4.90;;;;;;;;;;5070552;28;20191;-83
2021/05/02 14:19:21;;;;;;;5.15;4.75;;;;;;;;;;5068132;28;20449;-89
2021/05/02 14:21:48;;;;;;;5.22;4.72;;;;;;;;;;5074717;28;20668;-84
2021/05/02 14:24:14;;;;;;;5.22;4.60;;;;;;;;;;5076804;28;20188;-86
2021/05/02 14:26:40;;;;;;;6.68;5.47;;;;;;;;;;5075814;28;20295;-87
2021/05/02 14:29:06;;;;;;;6.25;5.72;;;;;;;;;;5055276;28;20185;-85
2021/05/02 14:31:32;;;;;;;5.90;5.40;;;;;;;;;;5076858;28;20184;-87
2021/05/02 14:33:58;;;;;;;6.90;6.20;;;;;;;;;;5055438;28;20215;-87
2021/05/02 14:36:24;;;;;;;5.90;5.35;;;;;;;;;;5069688;28;20172;-86
2021/05/02 14:38:51;;;;;;;7.80;5.60;;;;;;;;;;5066896;28;20201;-87
2021/05/02 14:41:17;;;;;;;5.55;5.05;;;;;;;;;;5082335;28;20213;-86
2021/05/02 14:43:43;;;;;;;11.00;8.20;;;;;;;;;;5073292;28;20228;-91
2021/05/02 14:46:09;;;;;;;6.70;6.00;;;;;;;;;;5088910;28;20426;-88